createdAt,value
2019-01-23T00:02:54.841Z,89.05
2019-01-23T00:08:57.523Z,74.97
2019-01-23T00:14:59.678Z,78.02
2019-01-23T00:21:01.873Z,75.97
2019-01-23T00:27:05.202Z,76.82
2019-01-23T00:33:07.599Z,76.42
2019-01-23T00:39:10.399Z,74.07
2019-01-23T00:45:12.579Z,75.80
2019-01-23T00:51:16.648Z,71.17
2019-01-23T00:57:18.822Z,67.12
2019-01-23T01:03:21.015Z,72.67
2019-01-23T01:09:23.227Z,72.82
2019-01-23T01:15:26.429Z,76.22
2019-01-23T01:21:28.807Z,70.87
2019-01-23T01:27:30.991Z,78.10
2019-01-23T01:33:34.093Z,71.82
2019-01-23T01:39:36.482Z,75.57
2019-01-23T01:45:39.097Z,74.17
2019-01-23T01:51:41.266Z,76.22
2019-01-23T01:57:45.983Z,82.95
2019-01-23T02:03:48.484Z,82.80
2019-01-23T02:09:50.883Z,82.55
2019-01-23T02:15:53.110Z,80.25
2019-01-23T02:21:55.245Z,81.40
2019-01-23T02:27:57.822Z,78.17
2019-01-23T02:34:00.045Z,78.87
2019-01-23T02:40:02.257Z,81.63
2019-01-23T02:46:04.353Z,80.07
2019-01-23T02:52:06.490Z,75.37
2019-01-23T02:58:08.826Z,77.03
2019-01-23T03:04:13.035Z,68.70
2019-01-23T03:10:17.155Z,68.62
2019-01-23T03:16:20.407Z,68.07
2019-01-23T03:22:22.625Z,66.60
2019-01-23T03:28:26.123Z,66.55
2019-01-23T03:34:28.824Z,69.32
2019-01-23T03:40:31.734Z,74.95
2019-01-23T03:46:34.005Z,67.85
2019-01-23T03:52:36.255Z,71.05
2019-01-23T03:58:39.318Z,79.05
2019-01-23T04:04:43.576Z,66.33
2019-01-23T04:10:46.172Z,73.35
2019-01-23T04:16:48.506Z,63.80
2019-01-23T04:22:50.671Z,64.03
2019-01-23T04:28:53.048Z,70.30
2019-01-23T04:34:55.191Z,66.57
2019-01-23T04:40:58.929Z,64.92
2019-01-23T04:47:01.620Z,71.75
2019-01-23T04:53:05.713Z,72.10
2019-01-23T04:59:09.148Z,62.50
2019-01-23T05:05:13.452Z,64.62
2019-01-23T05:11:15.610Z,69.37
2019-01-23T05:17:19.828Z,77.22
2019-01-23T05:23:22.031Z,69.80
2019-01-23T05:29:24.200Z,79.53
2019-01-23T05:35:26.494Z,82.85
2019-01-23T05:41:28.657Z,72.82
2019-01-23T05:47:31.351Z,71.97
2019-01-23T05:53:33.466Z,73.25
2019-01-23T05:59:35.672Z,70.70
2019-01-23T06:05:37.993Z,73.05
2019-01-23T06:11:42.584Z,70.97
2019-01-23T06:17:45.986Z,67.95
2019-01-23T06:23:48.399Z,68.35
2019-01-23T06:29:50.771Z,64.92
2019-01-23T06:35:53.861Z,67.82
2019-01-23T06:41:56.112Z,65.57
2019-01-23T06:47:58.703Z,64.90
2019-01-23T06:54:00.859Z,67.60
2019-01-23T07:00:08.040Z,71.70
2019-01-23T07:06:10.450Z,67.92
2019-01-23T07:12:14.846Z,70.75
2019-01-23T07:18:17.288Z,64.47
2019-01-23T07:24:19.634Z,66.62
2019-01-23T07:30:36.612Z,61.40
2019-01-23T07:36:39.900Z,65.20
2019-01-23T07:42:42.340Z,65.42
2019-01-23T07:48:45.741Z,63.15
2019-01-23T07:54:47.902Z,70.05
2019-01-23T08:00:50.131Z,67.78
2019-01-23T08:06:53.940Z,70.67
2019-01-23T08:12:57.918Z,71.25
2019-01-23T08:19:01.884Z,68.02
2019-01-23T08:25:04.695Z,72.62
2019-01-23T08:31:07.774Z,64.95
2019-01-23T08:37:11.240Z,67.35
2019-01-23T08:43:13.494Z,71.42
2019-01-23T08:49:15.809Z,69.05
2019-01-23T08:55:18.124Z,74.05
2019-01-23T09:01:20.924Z,70.10
2019-01-23T09:07:24.495Z,72.15
2019-01-23T09:13:27.895Z,71.37
2019-01-23T09:19:31.286Z,68.05
2019-01-23T09:25:34.788Z,71.97
2019-01-23T09:32:02.410Z,68.28
2019-01-23T09:38:25.903Z,69.10
2019-01-23T09:45:13.528Z,66.45
2019-01-23T09:51:54.023Z,68.78
2019-01-23T09:57:59.186Z,62.17
2019-01-23T10:04:01.604Z,65.85
2019-01-23T10:10:05.588Z,64.60
2019-01-23T10:16:18.320Z,72.42
2019-01-23T10:22:20.840Z,70.42
2019-01-23T10:28:23.410Z,71.37
2019-01-23T10:34:25.746Z,68.87
2019-01-23T10:40:27.980Z,66.50
2019-01-23T10:46:30.882Z,65.32
2019-01-23T10:52:33.531Z,67.90
2019-01-23T10:58:35.818Z,67.32
2019-01-23T11:04:38.087Z,66.42
2019-01-23T11:10:41.343Z,69.10
2019-01-23T11:16:43.698Z,64.22
2019-01-23T11:22:45.831Z,66.33
2019-01-23T11:28:48.276Z,69.80
2019-01-23T11:34:50.453Z,70.00
2019-01-23T11:40:52.696Z,67.75
2019-01-23T11:46:54.855Z,68.42
2019-01-23T11:52:57.895Z,66.40
2019-01-23T11:59:00.820Z,73.60
2019-01-23T12:05:03.699Z,67.80
2019-01-23T12:11:07.543Z,63.70
2019-01-23T12:17:10.213Z,70.95
2019-01-23T12:23:12.479Z,66.65
2019-01-23T12:29:14.634Z,62.40
2019-01-23T12:35:16.911Z,63.95
2019-01-23T12:41:19.069Z,63.20
2019-01-23T12:47:21.322Z,62.83
2019-01-23T12:53:23.777Z,64.07
2019-01-23T12:59:26.135Z,67.32
2019-01-23T13:05:28.635Z,66.85
2019-01-23T13:11:31.057Z,62.53
2019-01-23T13:17:33.413Z,70.87
2019-01-23T13:23:35.914Z,65.75
2019-01-23T13:29:39.336Z,64.62
2019-01-23T13:35:41.648Z,66.53
2019-01-23T13:41:44.271Z,69.05
2019-01-23T13:47:46.379Z,70.30
2019-01-23T13:53:49.967Z,68.72
2019-01-23T13:59:52.225Z,66.45
2019-01-23T14:05:55.636Z,66.60
2019-01-23T14:11:58.034Z,67.37
2019-01-23T14:18:00.695Z,78.30
2019-01-23T14:24:05.497Z,74.50
2019-01-23T14:30:15.055Z,123.67
2019-01-23T14:36:17.446Z,139.57
2019-01-23T14:42:20.708Z,94.37
2019-01-23T14:48:23.000Z,74.62
2019-01-23T14:54:26.600Z,73.52
2019-01-23T15:00:29.740Z,77.90
2019-01-23T15:06:32.091Z,72.35
2019-01-23T15:12:35.359Z,73.78
2019-01-23T15:18:37.881Z,71.65
2019-01-23T15:24:40.059Z,76.53
2019-01-23T15:30:42.419Z,75.47
2019-01-23T15:36:44.879Z,76.35
2019-01-23T15:42:47.356Z,79.90
2019-01-23T15:48:50.911Z,80.22
2019-01-23T15:54:53.206Z,86.02
2019-01-23T16:00:55.989Z,88.62
2019-01-23T16:06:58.415Z,89.55
2019-01-23T16:13:00.974Z,85.40
2019-01-23T16:19:23.102Z,80.22
2019-01-23T16:25:26.700Z,98.87
2019-01-23T16:31:29.136Z,96.25
2019-01-23T16:37:31.521Z,93.60
2019-01-23T16:43:35.850Z,103.05
2019-01-23T16:49:38.166Z,140.62
2019-01-23T16:55:40.989Z,316.27
2019-01-23T17:01:43.626Z,366.80
2019-01-23T17:07:45.900Z,261.70
2019-01-23T17:13:48.290Z,178.45
2019-01-23T17:19:50.672Z,234.47
2019-01-23T17:25:52.883Z,115.28
2019-01-23T17:31:55.867Z,96.10
2019-01-23T17:37:58.046Z,77.78
2019-01-23T17:44:01.339Z,73.95
2019-01-23T17:50:04.235Z,71.82
2019-01-23T17:56:06.449Z,70.35
2019-01-23T18:02:08.687Z,73.10
2019-01-23T18:08:11.952Z,71.82
2019-01-23T18:14:14.076Z,73.30
2019-01-23T18:20:18.619Z,78.40
2019-01-23T18:26:21.084Z,82.55
2019-01-23T18:32:23.389Z,79.30
2019-01-23T18:38:53.282Z,79.87
2019-01-23T18:45:20.140Z,73.55
2019-01-23T18:51:26.402Z,76.60
2019-01-23T18:57:28.703Z,75.92
2019-01-23T19:03:30.850Z,80.12
2019-01-23T19:09:32.971Z,75.08
2019-01-23T19:15:35.171Z,76.33
2019-01-23T19:21:37.313Z,78.07
2019-01-23T19:27:39.514Z,75.37
2019-01-23T19:33:41.677Z,80.32
2019-01-23T19:39:43.962Z,79.67
2019-01-23T19:45:46.167Z,79.55
2019-01-23T19:51:48.300Z,75.32
2019-01-23T19:57:50.525Z,75.35
2019-01-23T20:03:52.599Z,79.15
2019-01-23T20:09:54.726Z,75.50
2019-01-23T20:15:57.090Z,74.60
2019-01-23T20:21:59.456Z,84.67
2019-01-23T20:28:03.933Z,80.40
2019-01-23T20:34:06.320Z,80.45
2019-01-23T20:40:09.014Z,83.07
2019-01-23T20:46:11.307Z,77.42
2019-01-23T20:52:14.349Z,80.15
2019-01-23T20:58:16.911Z,78.97
2019-01-23T21:04:19.119Z,75.60
2019-01-23T21:10:22.425Z,79.92
2019-01-23T21:16:25.668Z,79.65
2019-01-23T21:22:28.497Z,85.20
2019-01-23T21:28:30.634Z,76.92
2019-01-23T21:34:33.131Z,84.35
2019-01-23T21:40:35.495Z,83.82
2019-01-23T21:46:37.618Z,82.92
2019-01-23T21:52:39.804Z,79.22
2019-01-23T21:58:41.986Z,80.60
2019-01-23T22:04:44.331Z,82.10
2019-01-23T22:10:46.554Z,83.97
2019-01-23T22:16:48.752Z,81.28
2019-01-23T22:22:51.110Z,89.25
2019-01-23T22:28:53.798Z,87.53
2019-01-23T22:34:57.004Z,89.05
2019-01-23T22:40:59.487Z,93.65
2019-01-23T22:47:01.696Z,78.45
2019-01-23T22:53:04.005Z,79.32
2019-01-23T22:59:06.142Z,79.65
2019-01-23T23:05:08.287Z,80.92
2019-01-23T23:11:10.564Z,81.00
2019-01-23T23:17:12.924Z,84.03
2019-01-23T23:23:15.269Z,85.22
2019-01-23T23:29:17.462Z,80.55
2019-01-23T23:35:20.148Z,81.35
2019-01-23T23:41:22.375Z,83.52
2019-01-23T23:47:24.494Z,71.60
2019-01-23T23:53:26.625Z,79.00
2019-01-23T23:59:31.251Z,79.50
